createdAt,value
2023-03-25T00:00:18.324Z,6.20
2023-03-25T00:02:50.797Z,6.20
2023-03-25T00:05:20.468Z,6.20
2023-03-25T00:07:51.805Z,6.20
2023-03-25T00:10:20.281Z,6.40
2023-03-25T00:12:47.465Z,6.50
2023-03-25T00:15:16.685Z,6.50
2023-03-25T00:17:44.383Z,6.60
2023-03-25T00:20:12.161Z,6.60
2023-03-25T00:22:44.768Z,6.60
2023-03-25T00:25:19.659Z,6.60
2023-03-25T00:27:49.070Z,6.60
2023-03-25T00:30:17.548Z,6.50
2023-03-25T00:32:53.184Z,6.50
2023-03-25T00:35:21.227Z,6.50
2023-03-25T00:37:52.458Z,6.40
2023-03-25T00:40:19.863Z,6.40
2023-03-25T00:42:50.486Z,6.30
2023-03-25T00:45:17.862Z,6.30
2023-03-25T00:47:45.407Z,6.30
2023-03-25T00:50:13.192Z,6.30
2023-03-25T00:52:41.382Z,6.20
2023-03-25T00:55:09.017Z,6.00
2023-03-25T00:57:37.172Z,5.90
2023-03-25T01:00:08.436Z,5.70
2023-03-25T01:02:36.905Z,5.60
2023-03-25T01:05:04.554Z,5.40
2023-03-25T01:07:32.268Z,5.40
2023-03-25T01:10:00.009Z,5.40
2023-03-25T01:12:28.257Z,5.30
2023-03-25T01:14:55.629Z,5.30
2023-03-25T01:17:23.079Z,5.30
2023-03-25T01:19:51.247Z,5.50
2023-03-25T01:22:18.801Z,5.70
2023-03-25T01:24:46.359Z,5.80
2023-03-25T01:27:14.014Z,5.80
2023-03-25T01:29:41.270Z,5.80
2023-03-25T01:32:08.832Z,6.00
2023-03-25T01:34:38.832Z,6.10
2023-03-25T01:37:06.515Z,6.00
2023-03-25T01:39:34.477Z,6.00
2023-03-25T01:42:02.069Z,5.60
2023-03-25T01:44:29.386Z,5.30
2023-03-25T01:47:01.675Z,5.10
2023-03-25T01:49:39.419Z,4.90
2023-03-25T01:52:14.514Z,4.70
2023-03-25T01:54:43.582Z,4.60
2023-03-25T01:57:17.901Z,4.50
2023-03-25T01:59:45.767Z,4.40
2023-03-25T02:02:16.193Z,4.30
2023-03-25T02:05:00.126Z,4.20
2023-03-25T02:07:33.413Z,4.20
2023-03-25T02:10:07.941Z,4.20
2023-03-25T02:12:35.054Z,4.20
2023-03-25T02:15:06.193Z,4.30
2023-03-25T02:17:47.758Z,4.30
2023-03-25T02:20:44.770Z,4.30
2023-03-25T02:23:23.812Z,4.30
2023-03-25T02:26:03.658Z,4.40
2023-03-25T02:28:42.628Z,4.40
2023-03-25T02:31:40.682Z,4.50
2023-03-25T02:34:18.751Z,4.60
2023-03-25T02:37:03.393Z,4.80
2023-03-25T02:39:39.155Z,5.00
2023-03-25T02:42:14.773Z,5.20
2023-03-25T02:44:47.391Z,5.10
2023-03-25T02:47:18.735Z,5.00
2023-03-25T02:49:52.861Z,4.90
2023-03-25T02:52:31.535Z,4.90
2023-03-25T02:55:04.793Z,4.90
2023-03-25T02:57:35.897Z,4.90
2023-03-25T03:00:10.629Z,4.90
2023-03-25T03:02:38.588Z,4.90
2023-03-25T03:05:23.275Z,4.90
2023-03-25T03:08:09.134Z,4.90
2023-03-25T03:10:50.567Z,4.90
2023-03-25T03:13:29.640Z,4.90
2023-03-25T03:16:12.005Z,4.90
2023-03-25T03:18:57.521Z,4.90
2023-03-25T03:21:38.180Z,4.80
2023-03-25T03:24:07.821Z,4.80
2023-03-25T03:26:39.277Z,4.80
2023-03-25T03:29:12.038Z,4.80
2023-03-25T03:32:05.988Z,4.90
2023-03-25T03:35:01.230Z,4.90
2023-03-25T03:37:40.952Z,4.80
2023-03-25T03:40:14.001Z,4.90
2023-03-25T03:42:45.483Z,4.90
2023-03-25T03:45:24.268Z,4.90
2023-03-25T03:47:55.518Z,4.90
2023-03-25T03:50:31.686Z,4.80
2023-03-25T03:53:07.554Z,4.80
2023-03-25T03:55:42.479Z,4.80
2023-03-25T03:58:25.425Z,4.80
2023-03-25T04:01:06.578Z,4.70
2023-03-25T04:03:39.998Z,4.70
2023-03-25T04:06:21.754Z,4.60
2023-03-25T04:08:58.879Z,4.50
2023-03-25T04:11:42.417Z,4.50
2023-03-25T04:14:10.889Z,4.50
2023-03-25T04:16:37.767Z,4.50
2023-03-25T04:19:05.985Z,4.40
2023-03-25T04:21:33.835Z,4.30
2023-03-25T04:24:01.627Z,4.30
2023-03-25T04:26:33.857Z,4.20
2023-03-25T04:29:02.127Z,4.30
2023-03-25T04:31:31.284Z,4.30
2023-03-25T04:33:59.504Z,4.20
2023-03-25T04:36:33.538Z,4.20
2023-03-25T04:39:01.257Z,4.20
2023-03-25T04:41:28.714Z,4.20
2023-03-25T04:43:55.647Z,4.20
2023-03-25T04:46:22.666Z,4.20
2023-03-25T04:48:49.802Z,4.20
2023-03-25T04:51:16.678Z,4.20
2023-03-25T04:53:43.910Z,4.20
2023-03-25T04:56:16.923Z,4.20
2023-03-25T04:58:44.644Z,4.10
2023-03-25T05:01:24.117Z,4.00
2023-03-25T05:03:51.369Z,3.90
2023-03-25T05:06:18.707Z,3.90
2023-03-25T05:08:45.931Z,3.90
2023-03-25T05:11:12.908Z,3.80
2023-03-25T05:13:39.731Z,3.90
2023-03-25T05:16:07.091Z,3.90
2023-03-25T05:18:34.062Z,3.90
2023-03-25T05:21:02.763Z,3.90
2023-03-25T05:23:31.558Z,4.00
2023-03-25T05:25:58.593Z,4.10
2023-03-25T05:28:25.462Z,4.20
2023-03-25T05:30:52.502Z,4.30
2023-03-25T05:33:19.935Z,4.30
2023-03-25T05:35:47.140Z,4.40
2023-03-25T05:38:24.240Z,4.40
2023-03-25T05:40:51.277Z,4.50
2023-03-25T05:43:22.879Z,4.50
2023-03-25T05:45:50.341Z,4.50
2023-03-25T05:48:18.107Z,4.50
2023-03-25T05:50:45.379Z,4.50
2023-03-25T05:53:15.520Z,4.50
2023-03-25T05:55:42.344Z,4.60
2023-03-25T05:58:09.560Z,4.60
2023-03-25T06:00:37.337Z,4.60
2023-03-25T06:03:07.427Z,4.60
2023-03-25T06:05:34.558Z,4.60
2023-03-25T06:08:01.913Z,4.60
2023-03-25T06:10:28.802Z,4.60
2023-03-25T06:12:55.634Z,4.60
2023-03-25T06:15:29.056Z,4.60
2023-03-25T06:17:56.981Z,4.60
2023-03-25T06:20:24.062Z,4.60
2023-03-25T06:22:51.094Z,4.60
2023-03-25T06:25:23.588Z,4.50
2023-03-25T06:27:51.408Z,4.50
2023-03-25T06:30:20.553Z,4.50
2023-03-25T06:32:51.060Z,4.50
2023-03-25T06:35:20.126Z,4.60
2023-03-25T06:37:48.742Z,4.50
2023-03-25T06:40:24.301Z,4.50
2023-03-25T06:42:51.604Z,4.50
2023-03-25T06:45:41.442Z,4.70
2023-03-25T06:48:15.932Z,4.70
2023-03-25T06:50:43.747Z,4.80
2023-03-25T06:53:11.269Z,4.70
2023-03-25T06:55:39.531Z,4.70
2023-03-25T06:58:06.552Z,4.60
2023-03-25T07:00:33.411Z,4.40
2023-03-25T07:03:00.897Z,4.40
2023-03-25T07:05:28.234Z,4.40
2023-03-25T07:07:55.715Z,4.50
2023-03-25T07:10:23.025Z,4.60
2023-03-25T07:12:49.989Z,4.60
2023-03-25T07:15:16.974Z,4.70
2023-03-25T07:17:49.119Z,4.80
2023-03-25T07:20:17.151Z,4.80
2023-03-25T07:22:44.319Z,4.90
2023-03-25T07:25:11.204Z,4.90
2023-03-25T07:27:38.165Z,5.00
2023-03-25T07:30:12.254Z,5.00
2023-03-25T07:32:39.225Z,4.90
2023-03-25T07:35:09.426Z,4.80
2023-03-25T07:37:36.231Z,4.80
2023-03-25T07:40:03.529Z,4.80
2023-03-25T07:42:30.357Z,4.80
2023-03-25T07:45:12.143Z,4.80
2023-03-25T07:47:41.517Z,4.80
2023-03-25T07:50:08.900Z,4.90
2023-03-25T07:52:36.215Z,4.80
2023-03-25T07:55:03.315Z,4.80
2023-03-25T07:57:30.116Z,4.80
2023-03-25T07:59:56.929Z,4.80
2023-03-25T08:02:23.780Z,4.90
2023-03-25T08:04:50.610Z,4.90
2023-03-25T08:07:17.454Z,4.90
2023-03-25T08:09:44.431Z,4.90
2023-03-25T08:12:11.254Z,5.00
2023-03-25T08:14:38.043Z,5.00
2023-03-25T08:17:06.374Z,5.10
2023-03-25T08:19:33.779Z,5.20
2023-03-25T08:22:00.741Z,5.30
2023-03-25T08:24:29.999Z,5.30
2023-03-25T08:26:56.958Z,5.30
2023-03-25T08:29:24.692Z,5.20
2023-03-25T08:31:52.314Z,5.20
2023-03-25T08:34:21.661Z,5.20
2023-03-25T08:36:49.074Z,5.30
2023-03-25T08:39:17.452Z,5.40
2023-03-25T08:41:45.287Z,5.60
2023-03-25T08:44:12.459Z,5.70
2023-03-25T08:46:40.525Z,5.70
2023-03-25T08:49:07.418Z,5.90
2023-03-25T08:51:34.297Z,5.90
2023-03-25T08:54:01.309Z,6.20
2023-03-25T08:56:29.216Z,6.40
2023-03-25T08:58:56.031Z,6.50
2023-03-25T09:01:24.337Z,6.50
2023-03-25T09:03:51.514Z,6.40
2023-03-25T09:06:18.362Z,6.50
2023-03-25T09:08:45.395Z,6.40
2023-03-25T09:11:24.217Z,6.30
2023-03-25T09:13:57.322Z,6.40
2023-03-25T09:16:24.625Z,6.50
2023-03-25T09:18:52.087Z,6.40
2023-03-25T09:21:18.861Z,6.40
2023-03-25T09:23:45.823Z,6.50
2023-03-25T09:26:13.158Z,6.70
2023-03-25T09:28:40.209Z,6.80
2023-03-25T09:31:08.133Z,6.80
2023-03-25T09:33:37.296Z,6.80
2023-03-25T09:36:04.625Z,6.90
2023-03-25T09:38:31.599Z,7.00
2023-03-25T09:41:25.672Z,7.10
2023-03-25T09:44:06.909Z,7.20
2023-03-25T09:46:36.605Z,7.50
2023-03-25T09:49:04.026Z,7.90
2023-03-25T09:51:38.616Z,8.10
2023-03-25T09:54:35.796Z,8.40
2023-03-25T09:57:08.005Z,9.00
2023-03-25T09:59:50.390Z,9.60
2023-03-25T10:02:58.339Z,10.10
2023-03-25T10:05:37.933Z,10.30
2023-03-25T10:08:27.644Z,10.50
2023-03-25T10:11:12.034Z,10.70
2023-03-25T10:13:43.631Z,11.00
2023-03-25T10:16:32.313Z,11.20
2023-03-25T10:19:25.238Z,11.50
2023-03-25T10:21:58.277Z,11.00
2023-03-25T10:24:31.280Z,10.60
2023-03-25T10:27:21.264Z,10.20
2023-03-25T10:30:04.666Z,9.80
2023-03-25T10:32:35.092Z,9.40
2023-03-25T10:35:05.484Z,9.70
2023-03-25T10:37:36.532Z,9.60
2023-03-25T10:40:16.658Z,9.50
2023-03-25T10:43:21.491Z,10.00
2023-03-25T10:45:50.055Z,10.60
2023-03-25T10:48:23.901Z,11.40
2023-03-25T10:50:53.352Z,11.60
2023-03-25T10:53:24.588Z,12.30
2023-03-25T10:55:58.445Z,12.30
2023-03-25T10:58:29.093Z,12.00
2023-03-25T11:00:55.937Z,11.80
2023-03-25T11:03:28.073Z,12.00
2023-03-25T11:05:55.325Z,12.40
2023-03-25T11:08:24.944Z,12.80
2023-03-25T11:10:57.854Z,12.70
2023-03-25T11:13:27.879Z,12.70
2023-03-25T11:15:57.682Z,13.00
2023-03-25T11:18:31.502Z,13.30
2023-03-25T11:21:07.863Z,13.30
2023-03-25T11:23:44.947Z,13.80
2023-03-25T11:26:23.843Z,13.80
2023-03-25T11:29:02.456Z,13.70
2023-03-25T11:31:34.932Z,13.60
2023-03-25T11:34:14.288Z,13.30
2023-03-25T11:37:02.431Z,13.20
2023-03-25T11:39:33.397Z,13.40
2023-03-25T11:42:08.899Z,13.80
2023-03-25T11:44:37.072Z,13.60
2023-03-25T11:47:07.596Z,13.50
2023-03-25T11:49:38.429Z,13.40
2023-03-25T11:52:17.869Z,13.30
2023-03-25T11:54:45.143Z,13.00
2023-03-25T11:57:21.000Z,13.10
2023-03-25T11:59:49.857Z,13.20
2023-03-25T12:02:31.420Z,12.70
2023-03-25T12:05:08.919Z,12.20
2023-03-25T12:07:47.543Z,12.10
2023-03-25T12:10:17.474Z,12.20
2023-03-25T12:12:53.835Z,12.30
2023-03-25T12:15:46.732Z,12.50
2023-03-25T12:18:48.012Z,13.20
2023-03-25T12:21:41.385Z,13.20
2023-03-25T12:24:31.632Z,12.90
2023-03-25T12:27:31.154Z,12.30
2023-03-25T12:30:36.359Z,12.50
2023-03-25T12:33:26.453Z,12.50
2023-03-25T12:36:32.301Z,12.70
2023-03-25T12:39:29.310Z,12.90
2023-03-25T12:42:40.082Z,13.30
2023-03-25T12:45:20.848Z,13.70
2023-03-25T12:48:03.824Z,13.60
2023-03-25T12:50:36.783Z,13.70
2023-03-25T12:53:21.728Z,13.60
2023-03-25T12:56:14.132Z,13.80
2023-03-25T12:59:00.018Z,13.90
2023-03-25T13:01:42.378Z,14.20
2023-03-25T13:04:37.931Z,14.10
2023-03-25T13:07:19.529Z,14.00
2023-03-25T13:10:05.232Z,14.00
2023-03-25T13:12:42.805Z,14.10
2023-03-25T13:15:31.066Z,13.70
2023-03-25T13:18:00.566Z,13.80
2023-03-25T13:20:33.076Z,14.10
2023-03-25T13:23:03.844Z,13.90
2023-03-25T13:25:47.420Z,13.80
2023-03-25T13:28:20.184Z,13.90
2023-03-25T13:30:49.612Z,14.00
2023-03-25T13:33:20.550Z,13.70
2023-03-25T13:35:49.630Z,13.60
2023-03-25T13:38:24.761Z,13.10
2023-03-25T13:41:15.449Z,13.00
2023-03-25T13:43:49.315Z,13.30
2023-03-25T13:46:25.685Z,13.30
2023-03-25T13:49:07.581Z,13.20
2023-03-25T13:51:34.436Z,13.10
2023-03-25T13:54:17.694Z,13.40
2023-03-25T13:57:22.797Z,13.60
2023-03-25T14:00:08.392Z,13.80
2023-03-25T14:03:03.580Z,13.70
2023-03-25T14:05:52.597Z,13.20
2023-03-25T14:08:40.937Z,13.00
2023-03-25T14:11:29.999Z,12.20
2023-03-25T14:14:48.011Z,12.20
2023-03-25T14:17:17.886Z,12.30
2023-03-25T14:19:52.848Z,12.20
2023-03-25T14:22:23.849Z,12.20
2023-03-25T14:24:51.501Z,12.20
2023-03-25T14:27:26.086Z,12.10
2023-03-25T14:30:04.750Z,12.10
2023-03-25T14:32:37.841Z,12.40
2023-03-25T14:35:36.711Z,12.50
2023-03-25T14:38:09.673Z,12.40
2023-03-25T14:40:50.731Z,12.20
2023-03-25T14:43:27.465Z,12.30
2023-03-25T14:46:11.321Z,12.40
2023-03-25T14:49:04.425Z,12.70
2023-03-25T14:51:31.205Z,12.20
2023-03-25T14:54:17.020Z,11.70
2023-03-25T14:57:01.830Z,11.20
2023-03-25T14:59:39.156Z,10.80
2023-03-25T15:02:26.481Z,10.60
2023-03-25T15:05:15.351Z,10.70
2023-03-25T15:07:59.056Z,11.10
2023-03-25T15:10:34.463Z,11.50
2023-03-25T15:13:09.695Z,11.80
2023-03-25T15:15:45.558Z,11.80
2023-03-25T15:18:33.002Z,11.80
2023-03-25T15:21:08.741Z,11.50
2023-03-25T15:23:47.469Z,11.60
2023-03-25T15:26:39.233Z,11.60
2023-03-25T15:29:38.480Z,11.60
2023-03-25T15:32:32.130Z,11.60
2023-03-25T15:35:20.439Z,11.40
2023-03-25T15:37:59.009Z,11.40
2023-03-25T15:40:26.687Z,11.40
2023-03-25T15:43:18.886Z,11.40
2023-03-25T15:46:05.425Z,11.30
2023-03-25T15:48:45.695Z,11.10
2023-03-25T15:51:27.743Z,10.90
2023-03-25T15:54:14.953Z,10.70
2023-03-25T15:56:46.084Z,10.70
2023-03-25T15:59:43.301Z,10.80
2023-03-25T16:02:24.418Z,10.80
2023-03-25T16:04:52.855Z,10.70
2023-03-25T16:07:24.749Z,10.70
2023-03-25T16:09:52.194Z,10.60
2023-03-25T16:12:22.205Z,10.30
2023-03-25T16:14:50.061Z,10.00
2023-03-25T16:17:19.469Z,9.90
2023-03-25T16:19:55.101Z,9.90
2023-03-25T16:22:33.520Z,9.90
2023-03-25T16:25:07.320Z,9.80
2023-03-25T16:27:37.662Z,9.80
2023-03-25T16:30:25.269Z,9.70
2023-03-25T16:32:52.863Z,9.60
2023-03-25T16:35:27.597Z,9.50
2023-03-25T16:37:56.985Z,9.50
2023-03-25T16:40:31.808Z,9.40
2023-03-25T16:43:06.824Z,9.40
2023-03-25T16:45:35.726Z,9.30
2023-03-25T16:48:07.445Z,9.20
2023-03-25T16:50:35.638Z,8.90
2023-03-25T16:53:03.740Z,8.80
2023-03-25T16:55:41.916Z,8.70
2023-03-25T16:58:22.181Z,8.60
2023-03-25T17:00:52.783Z,8.40
2023-03-25T17:03:44.811Z,8.20
2023-03-25T17:06:35.327Z,8.10
2023-03-25T17:09:05.040Z,7.90
2023-03-25T17:11:33.931Z,7.80
2023-03-25T17:14:37.154Z,7.70
2023-03-25T17:17:24.471Z,7.60
2023-03-25T17:19:53.033Z,7.50
2023-03-25T17:22:36.060Z,7.40
2023-03-25T17:25:16.304Z,7.40
2023-03-25T17:27:43.880Z,7.40
2023-03-25T17:30:29.252Z,7.30
2023-03-25T17:33:19.847Z,7.30
2023-03-25T17:35:55.192Z,7.20
2023-03-25T17:38:29.367Z,7.20
2023-03-25T17:41:05.053Z,7.10
2023-03-25T17:43:35.063Z,7.10
2023-03-25T17:46:04.707Z,7.00
2023-03-25T17:48:32.427Z,7.00
2023-03-25T17:51:00.907Z,7.00
2023-03-25T17:53:29.120Z,7.00
2023-03-25T17:55:59.400Z,7.10
2023-03-25T17:58:26.652Z,7.10
2023-03-25T18:00:54.478Z,7.30
2023-03-25T18:03:23.963Z,7.30
2023-03-25T18:05:54.058Z,7.30
2023-03-25T18:08:23.665Z,7.30
2023-03-25T18:10:53.283Z,7.30
2023-03-25T18:13:25.286Z,7.30
2023-03-25T18:15:54.016Z,7.30
2023-03-25T18:18:26.270Z,7.30
2023-03-25T18:20:56.281Z,7.20
2023-03-25T18:23:23.655Z,7.10
2023-03-25T18:25:51.089Z,7.10
2023-03-25T18:28:18.449Z,7.10
2023-03-25T18:30:58.568Z,7.00
2023-03-25T18:33:25.968Z,6.90
2023-03-25T18:35:53.350Z,6.80
2023-03-25T18:38:24.486Z,6.70
2023-03-25T18:40:53.967Z,6.60
2023-03-25T18:43:22.130Z,6.50
2023-03-25T18:45:49.645Z,6.40
2023-03-25T18:48:21.040Z,6.40
2023-03-25T18:50:54.901Z,6.30
2023-03-25T18:53:25.287Z,6.30
2023-03-25T18:56:00.104Z,6.30
2023-03-25T18:58:31.164Z,6.20
2023-03-25T19:00:59.547Z,6.20
2023-03-25T19:03:31.750Z,6.10
2023-03-25T19:06:00.527Z,6.10
2023-03-25T19:08:28.806Z,6.10
2023-03-25T19:11:04.643Z,6.10
2023-03-25T19:13:35.640Z,6.00
2023-03-25T19:16:02.923Z,5.90
2023-03-25T19:18:35.874Z,5.90
2023-03-25T19:21:03.659Z,5.90
2023-03-25T19:23:30.925Z,5.90
2023-03-25T19:25:59.819Z,6.00
2023-03-25T19:28:27.041Z,5.90
2023-03-25T19:30:58.708Z,5.90
2023-03-25T19:33:26.342Z,5.80
2023-03-25T19:35:55.019Z,5.70
2023-03-25T19:38:23.153Z,5.70
2023-03-25T19:40:52.529Z,5.70
2023-03-25T19:43:19.986Z,5.70
2023-03-25T19:45:47.651Z,5.70
2023-03-25T19:48:14.865Z,5.70
2023-03-25T19:50:42.938Z,5.70
2023-03-25T19:53:10.509Z,5.70
2023-03-25T19:55:37.660Z,5.70
2023-03-25T19:58:06.637Z,5.70
2023-03-25T20:00:33.886Z,5.60
2023-03-25T20:03:02.217Z,5.60
2023-03-25T20:05:31.465Z,5.60
2023-03-25T20:07:59.292Z,5.60
2023-03-25T20:10:28.834Z,5.60
2023-03-25T20:12:57.208Z,5.60
2023-03-25T20:15:26.511Z,5.70
2023-03-25T20:17:55.019Z,5.70
2023-03-25T20:20:23.181Z,5.70
2023-03-25T20:22:50.719Z,5.70
2023-03-25T20:25:18.107Z,5.70
2023-03-25T20:27:45.851Z,5.80
2023-03-25T20:30:16.494Z,5.90
2023-03-25T20:32:45.693Z,5.90
2023-03-25T20:35:16.425Z,6.00
2023-03-25T20:37:44.892Z,6.00
2023-03-25T20:40:15.614Z,6.10
2023-03-25T20:42:44.930Z,6.10
2023-03-25T20:45:14.040Z,6.10
2023-03-25T20:47:42.202Z,6.20
2023-03-25T20:50:12.919Z,6.30
2023-03-25T20:52:40.200Z,6.40
2023-03-25T20:55:09.939Z,6.40
2023-03-25T20:57:37.453Z,6.40
2023-03-25T21:00:06.731Z,6.30
2023-03-25T21:02:34.615Z,6.30
2023-03-25T21:05:03.447Z,6.40
2023-03-25T21:07:32.088Z,6.40
2023-03-25T21:09:59.871Z,6.30
2023-03-25T21:12:40.401Z,6.10
2023-03-25T21:15:10.625Z,5.90
2023-03-25T21:17:38.026Z,5.70
2023-03-25T21:20:09.541Z,5.60
2023-03-25T21:22:43.242Z,5.60
2023-03-25T21:25:12.031Z,5.60
2023-03-25T21:27:40.068Z,5.50
2023-03-25T21:30:09.883Z,5.40
2023-03-25T21:32:38.834Z,5.30
2023-03-25T21:35:07.981Z,5.10
2023-03-25T21:37:39.001Z,5.00
2023-03-25T21:40:11.037Z,4.90
2023-03-25T21:42:46.544Z,4.80
2023-03-25T21:45:16.560Z,4.60
2023-03-25T21:47:47.874Z,4.60
2023-03-25T21:50:16.639Z,4.70
2023-03-25T21:52:47.192Z,4.80
2023-03-25T21:55:16.194Z,4.90
2023-03-25T21:57:45.217Z,5.00
2023-03-25T22:00:17.118Z,5.10
2023-03-25T22:02:45.869Z,5.10
2023-03-25T22:05:14.309Z,5.20
2023-03-25T22:07:42.223Z,5.30
2023-03-25T22:10:10.669Z,5.40
2023-03-25T22:12:37.921Z,5.40
2023-03-25T22:15:05.876Z,5.30
2023-03-25T22:17:33.086Z,5.40
2023-03-25T22:20:00.384Z,5.30
2023-03-25T22:22:27.736Z,5.30
2023-03-25T22:24:54.881Z,5.20
2023-03-25T22:27:22.232Z,5.40
2023-03-25T22:29:49.382Z,5.40
2023-03-25T22:32:16.874Z,5.40
2023-03-25T22:34:44.187Z,5.40
2023-03-25T22:37:11.342Z,5.30
2023-03-25T22:39:39.159Z,5.20
2023-03-25T22:42:06.570Z,5.10
2023-03-25T22:44:33.812Z,5.10
2023-03-25T22:47:01.367Z,5.10
2023-03-25T22:49:28.522Z,5.00
2023-03-25T22:51:57.099Z,4.90
2023-03-25T22:54:24.288Z,4.90
2023-03-25T22:56:51.537Z,4.80
2023-03-25T22:59:19.536Z,4.90
2023-03-25T23:01:47.059Z,4.90
2023-03-25T23:04:14.385Z,4.90
2023-03-25T23:06:42.127Z,5.00
2023-03-25T23:09:10.544Z,5.00
2023-03-25T23:11:38.713Z,5.00
2023-03-25T23:14:09.040Z,4.90
2023-03-25T23:16:36.836Z,4.90
2023-03-25T23:19:05.999Z,4.90
2023-03-25T23:21:33.966Z,4.90
2023-03-25T23:24:04.003Z,5.00
2023-03-25T23:26:39.468Z,5.10
2023-03-25T23:29:09.280Z,5.10
2023-03-25T23:31:37.625Z,5.10
2023-03-25T23:34:06.718Z,5.10
2023-03-25T23:36:37.286Z,5.00
2023-03-25T23:39:10.215Z,5.00
2023-03-25T23:41:37.066Z,4.90
2023-03-25T23:44:04.869Z,4.90
2023-03-25T23:46:32.849Z,4.90
2023-03-25T23:49:02.941Z,4.90
2023-03-25T23:51:34.096Z,5.00
2023-03-25T23:54:01.372Z,5.00
2023-03-25T23:56:28.966Z,5.10
2023-03-25T23:58:56.142Z,5.10
